Home > Products > Valid Products > MTR

000
SAUS41 KRLX 270857 COR
MTRCKB
METAR KCKB 270853Z AUTO 20004KT 10SM -RA FEW027 FEW038 OVC049 19/18
A3013 RMK AO2 SLP187 P0005 60008 T01890178 50001 TSNO





000
SAUS41 KRLX 270758 COR
MTRCKB
METAR KCKB 270753Z AUTO 21007KT 10SM -RA FEW034 FEW041 OVC050 19/18
A3014 RMK AO2 RAB24 SLP190 P0003 T01890178 TSNO





000
SAUS41 KRLX 270658 COR
MTRCKB
METAR KCKB 270653Z AUTO 26007KT 10SM BKN040 OVC065 21/17 A3015 RMK
AO2 RAB23E34 SLP193 P0000 T02060172 TSNO





000
SAUS41 KRLX 270558 COR
MTRCKB
METAR KCKB 270553Z 26006KT 10SM SCT048 BKN060 22/17 A3013 RMK AO2
SLP186 T02220172 10250 20211 53009





    US Dept of Commerce
    National Oceanic and Atmospheric Administration
    National Weather Service
    1325 East West Highway
    Silver Spring, MD 20910
    Page Author: NWS Internet Services Team
Disclaimer
Information Quality
Credits
Glossary
Privacy Policy
Freedom of Information Act (FOIA)
About Us
Career Opportunities